Time;durP1;ratioP1;P1;durP2;ratioP2;P2;SDS_P1;SDS_P2;PMS_P1;PMS_P2;Temp;Humidity;BMP_temperature;BMP_pressure;BME280_temperature;BME280_humidity;BME280_pressure;Samples;Min_cycle;Max_cycle;Signal;HPM_P1;HPM_P2
2022/03/23 00:00:39;;;;;;;8.80;5.70;;;10.80;20.00;;;;;;5052010;28;20264;-35
2022/03/23 00:03:05;;;;;;;8.13;4.70;;;10.70;20.20;;;;;;5052269;28;20189;-35
2022/03/23 00:05:33;;;;;;;11.63;5.35;;;10.70;20.20;;;;;;5052431;28;20452;-35
2022/03/23 00:08:01;;;;;;;6.95;4.63;;;10.60;20.20;;;;;;5052146;28;20603;-35
2022/03/23 00:10:26;;;;;;;10.20;6.78;;;10.60;20.50;;;;;;5044500;28;20264;-35
2022/03/23 00:12:52;;;;;;;9.53;5.17;;;10.50;20.50;;;;;;5048299;28;20304;-35
2022/03/23 00:15:18;;;;;;;6.40;5.77;;;10.50;20.90;;;;;;5046775;28;20169;-35
2022/03/23 00:17:43;;;;;;;9.63;5.40;;;10.40;21.40;;;;;;5052042;28;20223;-35
2022/03/23 00:20:10;;;;;;;6.77;5.27;;;10.30;20.80;;;;;;5052023;28;20533;-35
2022/03/23 00:22:36;;;;;;;5.55;4.53;;;10.20;21.90;;;;;;5052021;28;20192;-35
2022/03/23 00:25:01;;;;;;;7.77;3.83;;;10.10;21.40;;;;;;5052142;28;20647;-35
2022/03/23 00:27:27;;;;;;;4.13;3.60;;;10.10;21.80;;;;;;5052166;28;20457;-34
2022/03/23 00:29:53;;;;;;;6.20;4.60;;;10.00;22.30;;;;;;5052026;28;20702;-35
2022/03/23 00:32:18;;;;;;;11.97;5.93;;;10.00;23.20;;;;;;5052090;28;20192;-35
2022/03/23 00:34:44;;;;;;;7.80;5.70;;;9.90;22.60;;;;;;5048935;28;20537;-35
2022/03/23 00:37:11;;;;;;;7.70;4.80;;;9.90;23.20;;;;;;5045286;28;20227;-35
2022/03/23 00:39:36;;;;;;;9.73;5.38;;;9.90;22.70;;;;;;5052733;28;20239;-35
2022/03/23 00:42:02;;;;;;;6.43;3.93;;;9.80;22.40;;;;;;5053857;28;20659;-35
2022/03/23 00:44:28;;;;;;;7.65;4.95;;;9.80;22.50;;;;;;5046952;28;20174;-35
2022/03/23 00:46:54;;;;;;;5.60;4.63;;;9.80;22.50;;;;;;5055186;28;20258;-35
2022/03/23 00:49:19;;;;;;;9.40;5.03;;;9.70;22.60;;;;;;5054974;28;20234;-35
2022/03/23 00:51:45;;;;;;;8.67;5.10;;;9.70;23.10;;;;;;5055461;28;20177;-35
2022/03/23 00:54:11;;;;;;;7.27;4.90;;;9.70;22.50;;;;;;5055016;28;20692;-35
2022/03/23 00:56:37;;;;;;;8.37;4.30;;;9.60;22.40;;;;;;5055000;28;20234;-35
2022/03/23 00:59:03;;;;;;;14.50;5.45;;;9.60;22.80;;;;;;5055028;28;20188;-35
2022/03/23 01:01:30;;;;;;;7.45;5.38;;;9.50;22.80;;;;;;5055318;28;20177;-35
2022/03/23 01:03:56;;;;;;;5.32;3.67;;;9.40;23.90;;;;;;5054968;28;20189;-35
2022/03/23 01:06:22;;;;;;;13.30;6.70;;;9.30;23.30;;;;;;5054754;28;20215;-34
2022/03/23 01:08:48;;;;;;;7.93;4.40;;;9.20;22.80;;;;;;5054942;28;20177;-35
2022/03/23 01:11:13;;;;;;;8.25;5.00;;;9.20;23.50;;;;;;5054962;28;20404;-35
2022/03/23 01:13:39;;;;;;;7.03;6.33;;;9.10;24.10;;;;;;5054887;28;20669;-35
2022/03/23 01:16:05;;;;;;;11.10;4.53;;;9.00;23.50;;;;;;5054777;28;20199;-35
2022/03/23 01:18:31;;;;;;;6.45;4.22;;;8.80;23.60;;;;;;5054970;28;20256;-35
2022/03/23 01:20:57;;;;;;;9.32;4.72;;;8.80;24.30;;;;;;5054511;28;20181;-35
2022/03/23 01:23:23;;;;;;;6.80;4.00;;;8.70;24.10;;;;;;5054709;28;20199;-35
2022/03/23 01:25:49;;;;;;;6.93;4.90;;;8.70;24.30;;;;;;5054443;28;20896;-35
2022/03/23 01:28:15;;;;;;;7.03;4.90;;;8.70;24.40;;;;;;5048700;28;20534;-35
2022/03/23 01:30:40;;;;;;;18.47;4.60;;;8.60;24.20;;;;;;5052150;28;20181;-35
2022/03/23 01:33:06;;;;;;;7.87;4.73;;;8.60;23.90;;;;;;5054281;28;20428;-34
2022/03/23 01:35:32;;;;;;;4.60;3.37;;;8.60;24.30;;;;;;5054620;28;20208;-34
2022/03/23 01:37:58;;;;;;;7.22;4.00;;;8.60;24.40;;;;;;5054607;28;20256;-35
2022/03/23 01:40:24;;;;;;;7.57;5.33;;;8.50;24.30;;;;;;5054128;28;20201;-35
2022/03/23 01:42:50;;;;;;;7.43;5.15;;;8.40;24.00;;;;;;5054149;28;20284;-35
2022/03/23 01:45:16;;;;;;;13.23;5.73;;;8.40;24.60;;;;;;5054185;28;20271;-35
2022/03/23 01:47:42;;;;;;;5.80;3.73;;;8.30;24.80;;;;;;5054203;28;20469;-35
2022/03/23 01:50:08;;;;;;;5.30;4.20;;;8.30;25.10;;;;;;5053860;28;20407;-35
2022/03/23 01:52:35;;;;;;;5.72;4.43;;;8.20;25.00;;;;;;5052883;28;20211;-34
2022/03/23 01:55:13;;;;;;;8.00;4.40;;;8.20;25.40;;;;;;5054291;28;20240;-34
2022/03/23 01:57:43;;;;;;;4.82;3.55;;;8.20;24.90;;;;;;5054329;28;20165;-35
2022/03/23 02:00:11;;;;;;;4.10;2.65;;;8.10;26.00;;;;;;5053744;28;20697;-35
2022/03/23 02:02:38;;;;;;;7.43;4.32;;;8.10;25.30;;;;;;5053688;28;20283;-34
2022/03/23 02:05:05;;;;;;;8.20;4.72;;;8.00;25.70;;;;;;5054181;28;20187;-35
2022/03/23 02:07:30;;;;;;;5.65;4.38;;;8.00;25.10;;;;;;5053836;28;20241;-34
2022/03/23 02:09:57;;;;;;;5.00;4.20;;;8.10;25.20;;;;;;5053505;28;20197;-35
2022/03/23 02:12:23;;;;;;;5.93;2.78;;;8.10;25.40;;;;;;5053607;28;20613;-35
2022/03/23 02:14:49;;;;;;;9.63;3.88;;;8.00;26.10;;;;;;5053611;28;20698;-34
2022/03/23 02:17:15;;;;;;;5.85;3.10;;;8.10;25.20;;;;;;5053579;28;20179;-34
2022/03/23 02:19:42;;;;;;;7.43;3.83;;;8.00;25.10;;;;;;5053295;28;20231;-34
2022/03/23 02:22:08;;;;;;;4.80;2.88;;;8.00;25.80;;;;;;5053491;28;20413;-34
2022/03/23 02:24:33;;;;;;;7.60;4.00;;;8.00;25.90;;;;;;5053502;28;20533;-35
2022/03/23 02:27:00;;;;;;;8.30;3.50;;;7.90;26.00;;;;;;5053330;28;20198;-34
2022/03/23 02:29:29;;;;;;;5.82;3.22;;;7.90;25.90;;;;;;5053079;28;20626;-34
2022/03/23 02:31:56;;;;;;;5.80;3.20;;;7.90;25.70;;;;;;5053389;28;20195;-35
2022/03/23 02:34:25;;;;;;;4.80;3.63;;;7.80;26.20;;;;;;5053319;28;20502;-34
2022/03/23 02:36:52;;;;;;;5.38;3.78;;;7.80;25.70;;;;;;5053211;28;20170;-34
2022/03/23 02:39:18;;;;;;;7.93;4.40;;;7.80;26.40;;;;;;5052874;28;20233;-34
2022/03/23 02:41:44;;;;;;;8.80;4.32;;;7.80;26.20;;;;;;5053168;28;20651;-34
2022/03/23 02:44:17;;;;;;;5.40;3.97;;;7.80;26.00;;;;;;5052941;28;20276;-34
2022/03/23 02:46:43;;;;;;;5.40;3.30;;;7.80;26.00;;;;;;5052991;28;20247;-34
2022/03/23 02:49:09;;;;;;;7.57;2.90;;;7.70;27.50;;;;;;5052906;28;20176;-34
2022/03/23 02:51:36;;;;;;;4.35;2.67;;;7.70;26.60;;;;;;5044261;28;20821;-34
2022/03/23 03:03:04;;;;;;;8.98;4.13;;;7.40;26.40;;;;;;5052562;28;20246;-34
2022/03/23 03:05:30;;;;;;;8.87;4.63;;;7.30;26.90;;;;;;5052949;28;20178;-34
2022/03/23 03:10:40;;;;;;;3.70;3.22;;;7.20;26.90;;;;;;5052437;28;20207;-34
2022/03/23 03:13:05;;;;;;;3.70;2.77;;;7.20;26.90;;;;;;5052528;28;20186;-34
2022/03/23 03:15:31;;;;;;;9.40;4.30;;;7.10;26.80;;;;;;5052802;28;20409;-34
2022/03/23 03:18:00;;;;;;;8.13;3.00;;;7.20;26.50;;;;;;5052746;28;20166;-34
2022/03/23 03:20:27;;;;;;;5.82;3.58;;;7.10;27.10;;;;;;5052552;28;20171;-34
2022/03/23 03:22:53;;;;;;;4.45;3.78;;;7.10;26.60;;;;;;5052716;28;20200;-34
2022/03/23 03:25:22;;;;;;;3.63;3.03;;;7.00;26.80;;;;;;5052995;28;20581;-34
2022/03/23 03:27:48;;;;;;;7.68;3.72;;;7.00;27.00;;;;;;5052811;28;20272;-34
2022/03/23 03:30:15;;;;;;;4.50;2.53;;;7.00;27.10;;;;;;5052852;28;20937;-34
2022/03/23 03:32:42;;;;;;;3.63;2.50;;;7.00;27.40;;;;;;5052846;28;20191;-34
2022/03/23 03:35:09;;;;;;;3.97;3.33;;;6.90;27.40;;;;;;5053325;28;20172;-34
2022/03/23 03:37:35;;;;;;;6.63;3.45;;;6.90;27.20;;;;;;5053113;28;20178;-34
2022/03/23 03:40:02;;;;;;;3.90;3.38;;;6.90;27.30;;;;;;5055489;28;20178;-34
2022/03/23 03:42:29;;;;;;;7.40;3.08;;;6.90;27.10;;;;;;5054695;28;20280;-34
2022/03/23 03:44:57;;;;;;;4.38;2.97;;;6.80;27.40;;;;;;5054373;28;20175;-34
2022/03/23 03:47:23;;;;;;;4.70;3.38;;;6.70;27.80;;;;;;5052556;28;20280;-34
2022/03/23 03:49:50;;;;;;;5.90;3.42;;;6.70;28.20;;;;;;5052139;28;20224;-34
2022/03/23 03:52:16;;;;;;;4.55;2.80;;;6.60;28.40;;;;;;5051858;28;20174;-34
2022/03/23 03:54:42;;;;;;;5.28;3.35;;;6.50;28.70;;;;;;5052045;28;20177;-35
2022/03/23 03:57:08;;;;;;;6.13;4.40;;;6.50;28.40;;;;;;5051947;28;20178;-34
2022/03/23 03:59:34;;;;;;;7.10;3.60;;;6.50;28.00;;;;;;5051762;28;20183;-33
2022/03/23 04:02:01;;;;;;;4.35;3.45;;;6.50;28.60;;;;;;5051865;28;20649;-33
2022/03/23 04:04:27;;;;;;;6.95;3.35;;;6.50;28.60;;;;;;5051883;28;20234;-34
2022/03/23 04:06:52;;;;;;;4.73;3.13;;;6.50;28.20;;;;;;5052010;28;20202;-33
2022/03/23 04:09:18;;;;;;;4.27;3.83;;;6.50;27.90;;;;;;5052021;28;20700;-33
2022/03/23 04:11:44;;;;;;;9.13;3.90;;;6.50;28.60;;;;;;5052097;28;20219;-34
2022/03/23 04:14:10;;;;;;;5.15;3.70;;;6.50;28.00;;;;;;5052125;28;20194;-34
2022/03/23 04:16:36;;;;;;;4.00;2.60;;;6.50;28.00;;;;;;5056269;28;20260;-34
2022/03/23 04:19:03;;;;;;;10.33;3.70;;;6.50;27.80;;;;;;5055880;28;20173;-34
2022/03/23 04:21:29;;;;;;;5.07;2.72;;;6.50;28.00;;;;;;5055978;28;20189;-34
2022/03/23 04:23:54;;;;;;;4.17;2.97;;;6.40;28.20;;;;;;5055760;28;20228;-34
2022/03/23 04:26:20;;;;;;;4.83;3.70;;;6.40;28.30;;;;;;5055740;28;20716;-34
2022/03/23 04:28:46;;;;;;;6.40;3.23;;;6.50;27.60;;;;;;5055469;28;20533;-34
2022/03/23 04:31:11;;;;;;;5.63;3.10;;;6.40;28.00;;;;;;5049905;28;20183;-34
2022/03/23 04:33:37;;;;;;;3.33;2.40;;;6.40;28.10;;;;;;5052733;28;20223;-34
2022/03/23 04:36:03;;;;;;;4.70;3.53;;;6.40;28.40;;;;;;5055620;28;20173;-34
2022/03/23 04:38:29;;;;;;;4.60;3.20;;;6.30;28.50;;;;;;5055581;28;20173;-33
2022/03/23 04:40:54;;;;;;;6.37;3.20;;;6.30;28.60;;;;;;5055137;28;20418;-34
2022/03/23 04:43:20;;;;;;;5.00;2.93;;;6.20;28.40;;;;;;5054097;28;20203;-34
2022/03/23 04:45:46;;;;;;;9.03;3.13;;;6.20;28.60;;;;;;5046710;28;20182;-35
2022/03/23 04:48:11;;;;;;;5.67;3.67;;;6.20;28.80;;;;;;5055159;28;20545;-34
2022/03/23 04:50:37;;;;;;;5.97;4.00;;;6.10;28.90;;;;;;5046441;28;20182;-34
2022/03/23 04:53:03;;;;;;;7.23;3.50;;;6.10;28.60;;;;;;5054929;28;20478;-34
2022/03/23 04:55:29;;;;;;;4.57;3.10;;;6.10;28.40;;;;;;5055111;28;20166;-34
2022/03/23 04:57:55;;;;;;;3.25;2.53;;;6.70;29.60;;;;;;5055706;28;20423;-34
2022/03/23 05:00:21;;;;;;;6.57;2.95;;;6.10;28.80;;;;;;5054865;28;20533;-34
2022/03/23 05:02:49;;;;;;;6.60;3.30;;;6.10;28.60;;;;;;5054964;28;20677;-35
2022/03/23 05:05:18;;;;;;;5.25;2.85;;;6.10;28.40;;;;;;5055054;28;20187;-35
2022/03/23 05:07:45;;;;;;;6.00;2.88;;;6.10;28.60;;;;;;5054815;28;20208;-34
2022/03/23 05:10:12;;;;;;;8.88;4.00;;;6.10;28.60;;;;;;5054471;28;20177;-35
2022/03/23 05:12:39;;;;;;;5.22;2.20;;;6.20;28.40;;;;;;5055015;28;20193;-35
2022/03/23 05:15:06;;;;;;;2.58;2.33;;;6.20;28.30;;;;;;5054768;28;20220;-35
2022/03/23 05:17:41;;;;;;;4.68;4.20;;;6.20;28.20;;;;;;5054697;28;20181;-34
2022/03/23 05:20:09;;;;;;;4.03;3.08;;;6.20;28.20;;;;;;5054438;28;20678;-35
2022/03/23 05:22:37;;;;;;;4.65;2.80;;;6.20;28.40;;;;;;5054429;28;20205;-34
2022/03/23 05:25:04;;;;;;;6.28;3.60;;;6.20;28.30;;;;;;5054271;28;20649;-34
2022/03/23 05:27:37;;;;;;;6.40;3.22;;;6.30;28.60;;;;;;5054693;28;20553;-35
2022/03/23 05:30:07;;;;;;;8.70;2.53;;;6.30;28.60;;;;;;5053972;28;20172;-34
2022/03/23 05:32:33;;;;;;;4.88;2.95;;;6.30;28.20;;;;;;5045888;28;20193;-35
2022/03/23 05:34:58;;;;;;;4.82;3.60;;;6.40;28.20;;;;;;5052825;28;20180;-35
2022/03/23 05:37:24;;;;;;;7.70;3.43;;;6.50;28.10;;;;;;5046241;28;20169;-35
2022/03/23 05:39:50;;;;;;;3.57;3.17;;;6.50;28.20;;;;;;5054291;28;20771;-34
2022/03/23 05:42:15;;;;;;;4.47;3.90;;;6.50;28.00;;;;;;5053900;28;20264;-35
2022/03/23 05:44:41;;;;;;;6.07;3.83;;;6.50;28.30;;;;;;5053946;28;20231;-34
2022/03/23 05:47:07;;;;;;;5.53;3.70;;;6.60;27.90;;;;;;5054068;28;20195;-35
2022/03/23 05:49:33;;;;;;;3.87;3.47;;;6.70;27.70;;;;;;5053900;28;20165;-35
2022/03/23 05:51:59;;;;;;;7.20;4.40;;;6.80;27.80;;;;;;5054007;28;20393;-35
2022/03/23 05:54:25;;;;;;;6.25;4.07;;;6.90;28.00;;;;;;5053980;28;20256;-35
2022/03/23 05:56:52;;;;;;;5.80;5.20;;;6.90;28.00;;;;;;5053853;28;20181;-34
2022/03/23 05:59:19;;;;;;;6.22;3.72;;;7.00;27.50;;;;;;5053787;28;20261;-36
2022/03/23 06:01:45;;;;;;;15.45;5.20;;;7.10;27.40;;;;;;5053920;28;20182;-36
2022/03/23 06:04:12;;;;;;;6.85;3.83;;;7.30;27.20;;;;;;5053864;28;20201;-36
2022/03/23 06:06:38;;;;;;;6.82;4.80;;;7.40;27.20;;;;;;5053537;28;20204;-36
2022/03/23 06:09:04;;;;;;;8.45;4.95;;;7.50;27.30;;;;;;5053745;28;20173;-36
2022/03/23 06:11:30;;;;;;;5.27;3.50;;;7.60;27.00;;;;;;5053677;28;20166;-36
2022/03/23 06:13:57;;;;;;;10.53;4.40;;;7.80;26.90;;;;;;5053460;28;20514;-35
2022/03/23 06:16:23;;;;;;;7.20;3.75;;;7.90;26.80;;;;;;5053494;28;20537;-36
2022/03/23 06:18:49;;;;;;;5.23;4.30;;;8.10;26.90;;;;;;5053144;28;20265;-35
2022/03/23 06:21:14;;;;;;;6.82;4.47;;;8.20;26.60;;;;;;5053651;28;20413;-36
2022/03/23 06:23:40;;;;;;;7.87;4.80;;;8.30;26.50;;;;;;5053539;28;20681;-36
2022/03/23 06:26:06;;;;;;;10.47;5.90;;;8.40;26.30;;;;;;5053471;28;20291;-36
2022/03/23 06:28:33;;;;;;;7.53;6.03;;;8.60;26.20;;;;;;5053358;28;20657;-36
2022/03/23 06:30:59;;;;;;;6.40;4.95;;;8.70;26.10;;;;;;5053177;28;20191;-35
2022/03/23 06:33:24;;;;;;;8.68;5.40;;;8.80;26.10;;;;;;5053023;28;20195;-36
2022/03/23 06:35:51;;;;;;;5.77;4.20;;;9.00;26.10;;;;;;5049308;28;20679;-36
2022/03/23 06:38:17;;;;;;;9.38;4.63;;;9.10;26.00;;;;;;5046917;28;20183;-36
2022/03/23 06:40:44;;;;;;;7.82;5.50;;;9.30;25.90;;;;;;5053026;28;20172;-36
2022/03/23 06:43:10;;;;;;;9.35;4.13;;;9.40;25.70;;;;;;5053039;28;20190;-36
2022/03/23 06:45:36;;;;;;;7.38;4.20;;;9.50;25.50;;;;;;5052984;28;20181;-36
2022/03/23 06:48:02;;;;;;;5.90;4.57;;;9.70;25.50;;;;;;5052970;28;20197;-36
2022/03/23 06:50:28;;;;;;;8.82;6.20;;;9.90;25.50;;;;;;5052900;28;20184;-36
2022/03/23 06:52:54;;;;;;;8.93;5.85;;;10.10;25.40;;;;;;5052846;28;20218;-36
2022/03/23 06:55:20;;;;;;;11.63;6.65;;;10.20;25.20;;;;;;5052789;28;20668;-36
2022/03/23 06:57:46;;;;;;;10.03;6.13;;;10.40;25.10;;;;;;5052858;28;20209;-36
2022/03/23 07:00:14;;;;;;;12.80;5.53;;;10.50;25.00;;;;;;5052509;28;20419;-36
2022/03/23 07:02:45;;;;;;;9.48;5.50;;;10.70;24.90;;;;;;5052614;28;20200;-36
2022/03/23 07:05:13;;;;;;;15.35;6.13;;;10.90;24.70;;;;;;5053001;28;20251;-36
2022/03/23 07:09:31;;;;;;;6.18;5.57;;;11.10;24.60;;;;;;5052501;28;20189;-36
2022/03/23 07:10:26;;;;;;;12.88;6.55;;;11.20;24.50;;;;;;5052182;28;20177;-36
2022/03/23 07:12:51;;;;;;;7.85;5.68;;;11.40;24.30;;;;;;5052283;28;20195;-36
2022/03/23 07:15:17;;;;;;;8.63;5.27;;;11.50;24.20;;;;;;5052626;28;20173;-36
2022/03/23 07:17:43;;;;;;;10.07;6.27;;;11.80;24.10;;;;;;5052369;28;20514;-36
2022/03/23 07:20:09;;;;;;;11.00;7.67;;;11.90;24.00;;;;;;5052120;28;20170;-36
2022/03/23 07:22:35;;;;;;;12.13;6.78;;;12.10;24.00;;;;;;5052287;28;20200;-36
2022/03/23 07:25:01;;;;;;;11.60;6.23;;;12.30;23.80;;;;;;5052316;28;20180;-36
2022/03/23 07:27:27;;;;;;;10.18;6.65;;;12.40;23.70;;;;;;5052006;28;20193;-36
2022/03/23 07:29:53;;;;;;;8.38;6.38;;;12.50;23.30;;;;;;5052260;28;20265;-36
2022/03/23 07:32:19;;;;;;;7.93;6.20;;;12.60;23.10;;;;;;5052158;28;20276;-36
2022/03/23 07:34:45;;;;;;;5.37;4.43;;;12.80;23.10;;;;;;5052297;28;20404;-36
2022/03/23 07:37:11;;;;;;;11.95;6.10;;;13.00;21.70;;;;;;5052249;28;20200;-36
2022/03/23 07:39:37;;;;;;;10.10;6.60;;;13.20;21.90;;;;;;5051843;28;20637;-36
2022/03/23 07:42:03;;;;;;;9.27;5.22;;;13.30;21.10;;;;;;5051958;28;20633;-36
2022/03/23 07:44:32;;;;;;;11.55;7.20;;;13.50;21.50;;;;;;5052158;28;20633;-36
2022/03/23 07:46:58;;;;;;;7.18;5.03;;;13.70;20.10;;;;;;5051854;28;20209;-36
2022/03/23 07:49:24;;;;;;;9.80;5.57;;;13.90;20.20;;;;;;5052056;28;20203;-36
2022/03/23 07:51:50;;;;;;;8.80;5.67;;;13.50;20.90;;;;;;5052009;28;20538;-36
2022/03/23 07:54:16;;;;;;;12.50;6.60;;;14.30;20.40;;;;;;5051774;28;20205;-36
2022/03/23 07:56:42;;;;;;;8.87;6.30;;;14.50;20.20;;;;;;5051916;28;20177;-36
2022/03/23 07:59:07;;;;;;;8.03;5.70;;;14.70;20.50;;;;;;5051705;28;20256;-36
2022/03/23 08:01:33;;;;;;;7.30;4.83;;;14.90;19.90;;;;;;5051760;28;20407;-36
2022/03/23 08:04:00;;;;;;;8.23;5.80;;;15.10;19.30;;;;;;5051741;28;20204;-36
2022/03/23 08:06:26;;;;;;;11.65;6.43;;;15.20;19.10;;;;;;5051971;28;20197;-33
2022/03/23 08:08:52;;;;;;;6.53;5.15;;;15.30;18.50;;;;;;5051641;28;20212;-33
2022/03/23 08:11:18;;;;;;;10.13;7.60;;;15.50;19.00;;;;;;5051769;28;20196;-33
2022/03/23 08:13:44;;;;;;;8.07;5.05;;;15.60;17.70;;;;;;5051530;28;20788;-34
2022/03/23 08:16:10;;;;;;;8.80;5.77;;;15.70;17.80;;;;;;5051997;28;20187;-34
2022/03/23 08:18:36;;;;;;;7.97;5.30;;;15.70;18.90;;;;;;5051549;28;20235;-33
2022/03/23 08:21:02;;;;;;;7.78;5.72;;;15.90;18.10;;;;;;5051743;28;20691;-34
2022/03/23 08:23:30;;;;;;;8.90;5.60;;;16.20;19.10;;;;;;5051651;28;20201;-34
2022/03/23 08:25:56;;;;;;;10.13;5.07;;;16.50;19.30;;;;;;5051718;28;20220;-33
2022/03/23 08:28:22;;;;;;;9.18;5.47;;;16.70;18.70;;;;;;5051805;28;20174;-33
2022/03/23 08:30:48;;;;;;;8.55;5.97;;;16.90;17.30;;;;;;5051349;28;20768;-34
2022/03/23 08:33:14;;;;;;;8.40;5.20;;;16.90;16.60;;;;;;5051494;28;20280;-33
2022/03/23 08:35:40;;;;;;;9.80;4.97;;;17.00;17.30;;;;;;5051617;28;20498;-33
2022/03/23 08:38:06;;;;;;;10.40;5.95;;;17.10;17.30;;;;;;5051636;28;20495;-33
2022/03/23 08:40:33;;;;;;;9.98;5.93;;;17.30;18.30;;;;;;5051325;28;20185;-34
2022/03/23 08:42:59;;;;;;;8.82;5.80;;;17.50;17.50;;;;;;5051520;28;20224;-34
2022/03/23 08:45:26;;;;;;;7.77;6.03;;;17.80;16.40;;;;;;5051575;28;20267;-33
2022/03/23 08:47:52;;;;;;;11.80;6.55;;;17.90;17.10;;;;;;5052242;28;20443;-34
2022/03/23 08:50:18;;;;;;;6.37;4.23;;;18.00;16.40;;;;;;5052688;28;20172;-33
2022/03/23 08:52:44;;;;;;;6.13;5.30;;;18.10;16.40;;;;;;5052002;28;20468;-34
2022/03/23 08:55:19;;;;;;;7.80;6.10;;;18.30;15.70;;;;;;5051399;28;20248;-33
2022/03/23 08:57:45;;;;;;;9.52;6.07;;;18.40;16.30;;;;;;5051620;28;20168;-33
2022/03/23 09:00:13;;;;;;;6.88;4.97;;;18.60;16.20;;;;;;5051271;28;20180;-34
2022/03/23 09:02:39;;;;;;;11.48;6.18;;;18.80;16.50;;;;;;5055021;28;20191;-34
2022/03/23 09:05:09;;;;;;;9.83;6.33;;;19.00;15.10;;;;;;5054911;28;20252;-34
2022/03/23 09:07:38;;;;;;;10.90;6.43;;;19.20;15.00;;;;;;5054988;28;20447;-34
2022/03/23 09:10:06;;;;;;;9.40;5.30;;;19.20;15.70;;;;;;5054923;28;20173;-34
2022/03/23 09:12:31;;;;;;;8.30;5.30;;;19.50;15.90;;;;;;5055093;28;20193;-34
2022/03/23 09:14:57;;;;;;;8.90;6.67;;;19.70;16.30;;;;;;5054846;28;20169;-34
2022/03/23 09:17:23;;;;;;;9.43;5.60;;;19.90;16.00;;;;;;5054760;28;20440;-34
2022/03/23 09:19:49;;;;;;;8.93;6.03;;;20.10;14.60;;;;;;5054525;28;20173;-34
2022/03/23 09:22:16;;;;;;;9.93;7.47;;;20.20;14.60;;;;;;5054744;28;20220;-34
2022/03/23 09:24:41;;;;;;;8.77;6.17;;;20.30;14.60;;;;;;5054542;28;20537;-33
2022/03/23 09:27:07;;;;;;;9.87;6.77;;;20.40;14.70;;;;;;5054490;28;20196;-34
2022/03/23 09:29:33;;;;;;;5.70;5.00;;;20.60;13.70;;;;;;5054306;28;20207;-34
2022/03/23 09:31:59;;;;;;;9.85;6.60;;;20.60;14.00;;;;;;5054399;28;20157;-34
2022/03/23 09:34:25;;;;;;;12.57;6.90;;;20.70;13.70;;;;;;5054339;28;20261;-34
2022/03/23 09:39:35;;;;;;;10.38;8.05;;;20.90;13.30;;;;;;5054376;28;20663;-34
2022/03/23 09:42:03;;;;;;;7.87;5.83;;;21.10;14.90;;;;;;5054534;28;20277;-34
2022/03/23 09:44:30;;;;;;;10.50;8.05;;;21.20;13.40;;;;;;5054115;28;20423;-37
2022/03/23 09:46:58;;;;;;;11.15;7.20;;;21.30;13.80;;;;;;5054069;28;20237;-34
2022/03/23 09:49:25;;;;;;;10.48;6.75;;;21.40;13.80;;;;;;5054023;28;20238;-34
2022/03/23 09:51:53;;;;;;;11.80;7.32;;;21.60;14.30;;;;;;5054057;28;20177;-34
2022/03/23 09:54:23;;;;;;;15.68;8.25;;;21.60;13.40;;;;;;5053910;28;20234;-34
2022/03/23 09:56:50;;;;;;;6.95;5.55;;;21.70;14.20;;;;;;5051504;28;20186;-34
2022/03/23 09:59:16;;;;;;;9.35;5.55;;;21.70;13.60;;;;;;5047985;28;20256;-34
2022/03/23 10:01:47;;;;;;;7.80;5.95;;;21.70;13.80;;;;;;5054074;28;20184;-34
2022/03/23 10:04:13;;;;;;;9.38;6.25;;;21.90;14.40;;;;;;5053751;28;20185;-34
2022/03/23 10:07:12;;;;;;;11.83;7.40;;;22.10;14.60;;;;;;5053949;28;20219;-34
2022/03/23 10:10:03;;;;;;;11.20;5.88;;;22.40;13.00;;;;;;5053909;28;20261;-35
2022/03/23 10:13:06;;;;;;;13.25;6.80;;;22.30;12.70;;;;;;5052566;28;20538;-34
2022/03/23 10:16:25;;;;;;;10.30;7.63;;;22.40;12.90;;;;;;5053692;28;20165;-35
2022/03/23 10:18:55;;;;;;;10.30;6.97;;;22.50;12.60;;;;;;5011455;28;20162;-34
2022/03/23 10:21:32;;;;;;;11.33;6.60;;;22.50;12.90;;;;;;5051328;28;20218;-34
2022/03/23 10:23:58;;;;;;;9.67;6.47;;;22.50;13.00;;;;;;5053428;28;20925;-34
2022/03/23 10:26:24;;;;;;;8.70;6.10;;;22.70;14.60;;;;;;5053362;28;20483;-35
2022/03/23 10:28:51;;;;;;;7.93;6.00;;;22.80;12.90;;;;;;5053010;28;20641;-35
2022/03/23 10:31:18;;;;;;;10.32;7.53;;;22.80;12.40;;;;;;5053638;28;20411;-34
2022/03/23 10:33:55;;;;;;;10.30;6.97;;;22.90;13.40;;;;;;5053291;28;20193;-35
2022/03/23 10:36:21;;;;;;;7.47;5.70;;;23.10;13.50;;;;;;5053380;28;20180;-34
2022/03/23 10:38:47;;;;;;;9.32;6.85;;;23.30;13.30;;;;;;5053271;28;20408;-34
2022/03/23 10:41:23;;;;;;;11.17;6.37;;;23.50;11.90;;;;;;5052883;28;20177;-35
2022/03/23 10:43:49;;;;;;;10.47;7.07;;;23.70;12.10;;;;;;5053289;28;20228;-35
2022/03/23 10:46:14;;;;;;;9.80;6.30;;;23.70;12.20;;;;;;5052926;28;20489;-35
2022/03/23 10:48:59;;;;;;;11.30;6.13;;;23.90;12.80;;;;;;5053051;28;20188;-37
2022/03/23 10:51:33;;;;;;;8.93;6.33;;;24.20;12.50;;;;;;5052935;28;20188;-35
2022/03/23 10:54:16;;;;;;;9.57;6.70;;;24.50;12.20;;;;;;5052740;28;20470;-35
2022/03/23 10:56:42;;;;;;;9.00;6.10;;;24.70;11.70;;;;;;5052879;28;20431;-35
2022/03/23 10:59:25;;;;;;;8.07;4.87;;;24.80;12.70;;;;;;5052657;28;20440;-35
2022/03/23 11:02:03;;;;;;;7.90;5.47;;;25.00;12.20;;;;;;5052826;28;20784;-35
2022/03/23 11:04:31;;;;;;;11.53;5.87;;;25.30;11.90;;;;;;5052693;28;20918;-35
2022/03/23 11:06:59;;;;;;;15.53;7.57;;;25.30;10.10;;;;;;5052824;28;20447;-35
2022/03/23 11:18:08;;;;;;;10.33;5.23;;;25.80;11.00;;;;;;5052770;28;20925;-35
2022/03/23 11:20:55;;;;;;;7.63;5.73;;;25.70;9.90;;;;;;5052222;28;20404;-35
2022/03/23 11:23:25;;;;;;;7.30;5.73;;;25.80;10.00;;;;;;5051942;28;20426;-35
2022/03/23 11:25:56;;;;;;;10.00;8.37;;;25.80;9.20;;;;;;5052300;28;20400;-35
2022/03/23 11:28:23;;;;;;;10.40;8.80;;;25.80;10.60;;;;;;5052503;28;20439;-35
2022/03/23 11:30:50;;;;;;;12.10;8.33;;;25.90;10.50;;;;;;5052192;28;20408;-35
2022/03/23 11:33:21;;;;;;;13.40;7.43;;;25.90;10.10;;;;;;5052108;28;20439;-35
2022/03/23 11:35:49;;;;;;;11.07;6.83;;;26.10;11.00;;;;;;5052234;28;20396;-35
2022/03/23 11:38:23;;;;;;;9.73;6.77;;;26.20;10.00;;;;;;5052180;28;20881;-35
2022/03/23 11:40:52;;;;;;;8.87;5.63;;;26.20;9.30;;;;;;5052067;28;20411;-35
2022/03/23 11:43:19;;;;;;;8.93;5.70;;;26.10;8.90;;;;;;5052028;28;20420;-35
2022/03/23 11:45:47;;;;;;;10.47;7.00;;;26.10;9.90;;;;;;5051965;28;20400;-37
2022/03/23 11:48:35;;;;;;;9.27;6.40;;;26.20;10.50;;;;;;5052070;28;20462;-35
2022/03/23 11:51:26;;;;;;;7.00;5.67;;;26.30;9.70;;;;;;5052104;28;20892;-35
2022/03/23 11:54:10;;;;;;;8.97;6.50;;;26.30;10.30;;;;;;5051755;28;20444;-35
2022/03/23 11:56:59;;;;;;;7.93;5.33;;;26.50;10.40;;;;;;5051888;28;20422;-34
2022/03/23 11:59:29;;;;;;;8.23;6.67;;;26.70;9.70;;;;;;5051315;28;20473;-35
2022/03/23 12:01:57;;;;;;;7.30;5.50;;;26.50;10.20;;;;;;5051806;28;20900;-35
2022/03/23 12:04:25;;;;;;;7.60;5.93;;;26.50;9.80;;;;;;5051817;28;20424;-35
2022/03/23 12:07:00;;;;;;;8.23;5.80;;;26.30;9.40;;;;;;5051725;28;20517;-35
2022/03/23 12:09:34;;;;;;;10.53;6.90;;;26.10;9.50;;;;;;5051532;28;20975;-35
2022/03/23 12:12:01;;;;;;;11.20;7.50;;;26.00;10.30;;;;;;5051919;28;20408;-35
2022/03/23 12:14:35;;;;;;;10.37;7.53;;;26.20;11.30;;;;;;5051858;28;20525;-34
2022/03/23 12:17:09;;;;;;;11.30;7.30;;;26.40;9.70;;;;;;5051661;28;20919;-35
2022/03/23 12:19:59;;;;;;;9.70;7.10;;;26.30;10.90;;;;;;5051518;28;20443;-35
2022/03/23 12:22:33;;;;;;;10.70;6.80;;;26.50;11.40;;;;;;5051615;28;21162;-35
2022/03/23 12:25:26;;;;;;;10.80;6.43;;;26.70;10.10;;;;;;5051616;28;20411;-35
2022/03/23 12:28:16;;;;;;;14.77;6.73;;;26.80;10.20;;;;;;5051680;28;20775;-35
2022/03/23 12:30:57;;;;;;;5.67;5.00;;;26.80;9.70;;;;;;5051667;28;20526;-35
2022/03/23 12:33:26;;;;;;;9.23;7.00;;;26.50;9.70;;;;;;5051665;28;20802;-34
2022/03/23 12:35:58;;;;;;;11.87;7.57;;;26.50;10.90;;;;;;5052886;28;20404;-35
2022/03/23 12:38:29;;;;;;;11.13;7.50;;;26.70;10.70;;;;;;5055534;28;20418;-35
2022/03/23 12:41:09;;;;;;;16.03;7.20;;;26.80;10.10;;;;;;5055216;28;20925;-35
2022/03/23 12:43:42;;;;;;;12.50;8.27;;;27.00;11.00;;;;;;5055251;28;20430;-35
2022/03/23 12:46:26;;;;;;;12.10;6.93;;;27.30;10.90;;;;;;5055183;28;20387;-34
2022/03/23 12:57:52;;;;;;;11.97;6.67;;;27.60;9.30;;;;;;5055333;28;20407;-35
2022/03/23 13:00:27;;;;;;;13.20;7.17;;;27.40;10.00;;;;;;5054900;28;20396;-35
2022/03/23 13:03:22;;;;;;;8.50;6.93;;;27.20;10.70;;;;;;5055194;28;20469;-35
2022/03/23 13:05:59;;;;;;;13.30;8.30;;;27.00;10.70;;;;;;5055605;28;21078;-35
2022/03/23 13:08:33;;;;;;;8.00;6.50;;;26.80;10.70;;;;;;5054814;28;21077;-35
2022/03/23 13:11:02;;;;;;;12.77;8.60;;;26.90;12.00;;;;;;5054890;28;20392;-35
2022/03/23 13:13:38;;;;;;;11.93;7.97;;;27.20;10.90;;;;;;5054802;28;20423;-35
2022/03/23 13:16:14;;;;;;;10.57;8.40;;;27.20;11.20;;;;;;5054890;28;20427;-35
2022/03/23 13:18:41;;;;;;;9.90;7.17;;;27.40;11.70;;;;;;5054880;28;20833;-35
2022/03/23 13:21:21;;;;;;;13.27;9.03;;;27.70;12.80;;;;;;5054866;28;20954;-35
2022/03/23 13:23:51;;;;;;;10.00;6.83;;;28.20;13.10;;;;;;5054666;28;20838;-36
2022/03/23 13:26:19;;;;;;;13.40;8.33;;;28.60;12.90;;;;;;5054733;28;20414;-35
2022/03/23 13:28:51;;;;;;;14.40;8.40;;;28.90;12.70;;;;;;5054557;28;20408;-35